sensor_id;sensor_type;location;lat;lon;timestamp;temperature;humidity
72762;SHT30;60886;55.034;73.150;2022-12-07T00:01:43;-15.61;68.78
72762;SHT30;60886;55.034;73.150;2022-12-07T00:04:13;-15.60;68.67
72762;SHT30;60886;55.034;73.150;2022-12-07T00:06:42;-15.58;68.88
72762;SHT30;60886;55.034;73.150;2022-12-07T00:09:16;-15.55;69.20
72762;SHT30;60886;55.034;73.150;2022-12-07T00:11:43;-15.50;68.96
72762;SHT30;60886;55.034;73.150;2022-12-07T00:14:13;-15.48;68.70
72762;SHT30;60886;55.034;73.150;2022-12-07T00:16:40;-15.44;68.57
72762;SHT30;60886;55.034;73.150;2022-12-07T00:19:07;-15.40;68.30
72762;SHT30;60886;55.034;73.150;2022-12-07T00:21:35;-15.36;68.20
72762;SHT30;60886;55.034;73.150;2022-12-07T00:24:02;-15.33;67.78
72762;SHT30;60886;55.034;73.150;2022-12-07T00:26:35;-15.27;67.72
72762;SHT30;60886;55.034;73.150;2022-12-07T00:29:06;-15.24;67.40
72762;SHT30;60886;55.034;73.150;2022-12-07T00:31:35;-15.24;67.87
72762;SHT30;60886;55.034;73.150;2022-12-07T00:34:15;-15.34;67.96
72762;SHT30;60886;55.034;73.150;2022-12-07T00:36:42;-15.37;68.27
72762;SHT30;60886;55.034;73.150;2022-12-07T00:39:10;-15.33;68.38
72762;SHT30;60886;55.034;73.150;2022-12-07T00:41:36;-15.33;68.70
72762;SHT30;60886;55.034;73.150;2022-12-07T00:44:02;-15.33;68.55
72762;SHT30;60886;55.034;73.150;2022-12-07T00:46:30;-15.34;68.48
72762;SHT30;60886;55.034;73.150;2022-12-07T00:48:56;-15.50;68.51
72762;SHT30;60886;55.034;73.150;2022-12-07T00:51:26;-15.43;68.90
72762;SHT30;60886;55.034;73.150;2022-12-07T00:53:56;-15.43;68.72
72762;SHT30;60886;55.034;73.150;2022-12-07T00:56:28;-15.33;68.91
72762;SHT30;60886;55.034;73.150;2022-12-07T00:59:01;-15.31;69.14
72762;SHT30;60886;55.034;73.150;2022-12-07T01:01:30;-15.34;69.31
72762;SHT30;60886;55.034;73.150;2022-12-07T01:03:57;-15.36;69.12
72762;SHT30;60886;55.034;73.150;2022-12-07T01:06:35;-15.36;69.23
72762;SHT30;60886;55.034;73.150;2022-12-07T01:09:02;-15.36;69.36
72762;SHT30;60886;55.034;73.150;2022-12-07T01:11:30;-15.34;69.54
72762;SHT30;60886;55.034;73.150;2022-12-07T01:13:57;-15.38;69.51
72762;SHT30;60886;55.034;73.150;2022-12-07T01:16:26;-15.43;69.36
72762;SHT30;60886;55.034;73.150;2022-12-07T01:18:54;-15.47;69.80
72762;SHT30;60886;55.034;73.150;2022-12-07T01:21:28;-15.41;70.24
72762;SHT30;60886;55.034;73.150;2022-12-07T01:23:59;-15.40;69.81
72762;SHT30;60886;55.034;73.150;2022-12-07T01:26:28;-15.38;69.59
72762;SHT30;60886;55.034;73.150;2022-12-07T01:28:55;-15.40;69.50
72762;SHT30;60886;55.034;73.150;2022-12-07T01:31:23;-15.36;69.77
72762;SHT30;60886;55.034;73.150;2022-12-07T01:33:52;-15.34;69.53
72762;SHT30;60886;55.034;73.150;2022-12-07T01:36:23;-15.38;69.22
72762;SHT30;60886;55.034;73.150;2022-12-07T01:38:53;-15.37;69.66
72762;SHT30;60886;55.034;73.150;2022-12-07T01:41:23;-15.34;69.50
72762;SHT30;60886;55.034;73.150;2022-12-07T01:44:22;-15.38;69.55
72762;SHT30;60886;55.034;73.150;2022-12-07T01:46:54;-15.40;69.65
72762;SHT30;60886;55.034;73.150;2022-12-07T01:49:26;-15.38;69.54
72762;SHT30;60886;55.034;73.150;2022-12-07T01:54:35;-15.43;69.67
72762;SHT30;60886;55.034;73.150;2022-12-07T01:57:04;-15.40;69.44
72762;SHT30;60886;55.034;73.150;2022-12-07T01:59:37;-15.41;69.48
72762;SHT30;60886;55.034;73.150;2022-12-07T02:05:54;-15.31;69.61
72762;SHT30;60886;55.034;73.150;2022-12-07T02:08:21;-15.36;69.49
72762;SHT30;60886;55.034;73.150;2022-12-07T02:10:49;-15.38;69.61
72762;SHT30;60886;55.034;73.150;2022-12-07T02:13:28;-15.40;69.22
72762;SHT30;60886;55.034;73.150;2022-12-07T02:18:58;-15.41;69.24
72762;SHT30;60886;55.034;73.150;2022-12-07T02:21:47;-15.43;69.51
72762;SHT30;60886;55.034;73.150;2022-12-07T02:24:54;-15.36;69.27
72762;SHT30;60886;55.034;73.150;2022-12-07T02:27:47;-15.36;69.23
72762;SHT30;60886;55.034;73.150;2022-12-07T02:30:17;-15.44;68.96
72762;SHT30;60886;55.034;73.150;2022-12-07T02:33:00;-15.40;69.16
72762;SHT30;60886;55.034;73.150;2022-12-07T02:35:42;-15.41;68.57
72762;SHT30;60886;55.034;73.150;2022-12-07T02:38:25;-15.46;68.78
72762;SHT30;60886;55.034;73.150;2022-12-07T02:41:26;-15.38;68.95
72762;SHT30;60886;55.034;73.150;2022-12-07T02:44:07;-15.28;68.48
72762;SHT30;60886;55.034;73.150;2022-12-07T02:46:39;-15.26;68.78
72762;SHT30;60886;55.034;73.150;2022-12-07T02:49:08;-15.24;68.13
72762;SHT30;60886;55.034;73.150;2022-12-07T02:51:39;-15.16;67.51
72762;SHT30;60886;55.034;73.150;2022-12-07T02:54:14;-15.24;67.59
72762;SHT30;60886;55.034;73.150;2022-12-07T03:13:08;-15.31;67.82
72762;SHT30;60886;55.034;73.150;2022-12-07T03:16:14;-15.30;67.99
72762;SHT30;60886;55.034;73.150;2022-12-07T03:18:55;-15.24;68.07
72762;SHT30;60886;55.034;73.150;2022-12-07T03:21:57;-15.27;68.35
72762;SHT30;60886;55.034;73.150;2022-12-07T03:24:27;-15.34;68.35
72762;SHT30;60886;55.034;73.150;2022-12-07T03:27:19;-15.36;69.04
72762;SHT30;60886;55.034;73.150;2022-12-07T03:29:50;-15.38;69.43
72762;SHT30;60886;55.034;73.150;2022-12-07T03:37:40;-15.34;69.75
72762;SHT30;60886;55.034;73.150;2022-12-07T03:40:26;-15.31;69.49
72762;SHT30;60886;55.034;73.150;2022-12-07T03:42:55;-15.30;69.38
72762;SHT30;60886;55.034;73.150;2022-12-07T03:45:28;-15.24;69.40
72762;SHT30;60886;55.034;73.150;2022-12-07T03:51:24;-15.38;69.78
72762;SHT30;60886;55.034;73.150;2022-12-07T03:53:59;-15.41;69.40
72762;SHT30;60886;55.034;73.150;2022-12-07T03:56:27;-15.30;69.31
72762;SHT30;60886;55.034;73.150;2022-12-07T03:58:55;-15.36;69.52
72762;SHT30;60886;55.034;73.150;2022-12-07T04:01:23;-15.33;69.18
72762;SHT30;60886;55.034;73.150;2022-12-07T04:03:55;-15.31;68.85
72762;SHT30;60886;55.034;73.150;2022-12-07T04:06:21;-15.28;69.16
72762;SHT30;60886;55.034;73.150;2022-12-07T04:08:48;-15.31;69.40
72762;SHT30;60886;55.034;73.150;2022-12-07T04:11:14;-15.20;68.61
72762;SHT30;60886;55.034;73.150;2022-12-07T04:13:41;-15.24;68.25
72762;SHT30;60886;55.034;73.150;2022-12-07T04:16:30;-15.26;68.41
72762;SHT30;60886;55.034;73.150;2022-12-07T04:19:02;-15.27;68.58
72762;SHT30;60886;55.034;73.150;2022-12-07T04:21:28;-15.36;69.12
72762;SHT30;60886;55.034;73.150;2022-12-07T04:23:55;-15.47;69.56
72762;SHT30;60886;55.034;73.150;2022-12-07T04:26:27;-15.48;70.41
72762;SHT30;60886;55.034;73.150;2022-12-07T04:28:53;-15.51;70.40
72762;SHT30;60886;55.034;73.150;2022-12-07T04:31:20;-15.46;70.41
72762;SHT30;60886;55.034;73.150;2022-12-07T04:33:47;-15.43;69.70
72762;SHT30;60886;55.034;73.150;2022-12-07T04:36:13;-15.33;69.17
72762;SHT30;60886;55.034;73.150;2022-12-07T04:38:44;-15.33;68.78
72762;SHT30;60886;55.034;73.150;2022-12-07T04:41:10;-15.28;68.19
72762;SHT30;60886;55.034;73.150;2022-12-07T04:43:41;-15.37;68.14
72762;SHT30;60886;55.034;73.150;2022-12-07T04:46:07;-15.36;68.27
72762;SHT30;60886;55.034;73.150;2022-12-07T04:48:34;-15.37;68.39
72762;SHT30;60886;55.034;73.150;2022-12-07T04:51:00;-15.33;68.46
72762;SHT30;60886;55.034;73.150;2022-12-07T04:53:26;-15.34;68.45
72762;SHT30;60886;55.034;73.150;2022-12-07T04:55:52;-15.37;68.59
72762;SHT30;60886;55.034;73.150;2022-12-07T04:58:24;-15.31;68.94
72762;SHT30;60886;55.034;73.150;2022-12-07T05:00:54;-15.24;69.43
72762;SHT30;60886;55.034;73.150;2022-12-07T05:03:30;-15.06;69.39
72762;SHT30;60886;55.034;73.150;2022-12-07T05:06:02;-14.96;69.42
72762;SHT30;60886;55.034;73.150;2022-12-07T05:08:39;-14.86;68.91
72762;SHT30;60886;55.034;73.150;2022-12-07T05:11:07;-14.75;69.52
72762;SHT30;60886;55.034;73.150;2022-12-07T05:13:38;-14.69;69.47
72762;SHT30;60886;55.034;73.150;2022-12-07T05:16:14;-14.65;68.73
72762;SHT30;60886;55.034;73.150;2022-12-07T05:18:40;-14.62;68.79
72762;SHT30;60886;55.034;73.150;2022-12-07T05:21:07;-14.65;69.26
72762;SHT30;60886;55.034;73.150;2022-12-07T05:23:43;-14.58;69.41
72762;SHT30;60886;55.034;73.150;2022-12-07T05:26:10;-14.47;69.10
72762;SHT30;60886;55.034;73.150;2022-12-07T05:28:42;-14.41;68.74
72762;SHT30;60886;55.034;73.150;2022-12-07T05:31:08;-14.41;68.87
72762;SHT30;60886;55.034;73.150;2022-12-07T05:33:40;-14.42;68.89
72762;SHT30;60886;55.034;73.150;2022-12-07T05:36:16;-14.36;69.46
72762;SHT30;60886;55.034;73.150;2022-12-07T05:38:43;-14.54;68.97
72762;SHT30;60886;55.034;73.150;2022-12-07T05:41:15;-14.76;69.85
72762;SHT30;60886;55.034;73.150;2022-12-07T05:44:00;-14.68;70.35
72762;SHT30;60886;55.034;73.150;2022-12-07T05:46:26;-14.58;70.19
72762;SHT30;60886;55.034;73.150;2022-12-07T05:48:53;-14.50;69.71
72762;SHT30;60886;55.034;73.150;2022-12-07T05:51:19;-14.36;70.14
72762;SHT30;60886;55.034;73.150;2022-12-07T05:53:45;-14.24;69.63
72762;SHT30;60886;55.034;73.150;2022-12-07T05:56:16;-14.16;69.58
72762;SHT30;60886;55.034;73.150;2022-12-07T05:58:47;-14.06;69.49
72762;SHT30;60886;55.034;73.150;2022-12-07T06:01:32;-14.02;69.46
72762;SHT30;60886;55.034;73.150;2022-12-07T06:03:58;-14.02;68.35
72762;SHT30;60886;55.034;73.150;2022-12-07T06:06:35;-14.23;68.37
72762;SHT30;60886;55.034;73.150;2022-12-07T06:09:02;-14.34;68.99
72762;SHT30;60886;55.034;73.150;2022-12-07T06:11:28;-14.55;69.16
72762;SHT30;60886;55.034;73.150;2022-12-07T06:14:20;-14.50;70.22
72762;SHT30;60886;55.034;73.150;2022-12-07T06:16:47;-14.62;69.44
72762;SHT30;60886;55.034;73.150;2022-12-07T06:19:13;-14.74;70.29
72762;SHT30;60886;55.034;73.150;2022-12-07T06:21:44;-14.71;70.74
72762;SHT30;60886;55.034;73.150;2022-12-07T06:24:12;-14.50;71.07
72762;SHT30;60886;55.034;73.150;2022-12-07T06:26:38;-14.38;70.18
72762;SHT30;60886;55.034;73.150;2022-12-07T06:29:05;-14.28;70.25
72762;SHT30;60886;55.034;73.150;2022-12-07T06:31:32;-14.13;69.92
72762;SHT30;60886;55.034;73.150;2022-12-07T06:34:03;-13.99;69.35
72762;SHT30;60886;55.034;73.150;2022-12-07T06:36:30;-13.85;68.76
72762;SHT30;60886;55.034;73.150;2022-12-07T06:38:57;-13.87;68.11
72762;SHT30;60886;55.034;73.150;2022-12-07T06:41:24;-13.91;68.51
72762;SHT30;60886;55.034;73.150;2022-12-07T06:43:50;-14.02;68.56
72762;SHT30;60886;55.034;73.150;2022-12-07T06:46:17;-13.96;68.99
72762;SHT30;60886;55.034;73.150;2022-12-07T06:48:43;-13.87;69.07
72762;SHT30;60886;55.034;73.150;2022-12-07T06:51:10;-13.69;68.72
72762;SHT30;60886;55.034;73.150;2022-12-07T06:53:37;-13.52;68.56
72762;SHT30;60886;55.034;73.150;2022-12-07T06:56:05;-13.38;68.42
72762;SHT30;60886;55.034;73.150;2022-12-07T06:58:39;-13.27;68.06
72762;SHT30;60886;55.034;73.150;2022-12-07T07:01:14;-13.20;67.08
72762;SHT30;60886;55.034;73.150;2022-12-07T07:03:41;-13.20;66.88
72762;SHT30;60886;55.034;73.150;2022-12-07T07:06:07;-13.25;66.78
72762;SHT30;60886;55.034;73.150;2022-12-07T07:08:34;-13.42;67.22
72762;SHT30;60886;55.034;73.150;2022-12-07T07:11:03;-13.45;67.54
72762;SHT30;60886;55.034;73.150;2022-12-07T07:13:30;-13.51;67.38
72762;SHT30;60886;55.034;73.150;2022-12-07T07:15:57;-13.41;67.69
72762;SHT30;60886;55.034;73.150;2022-12-07T07:18:24;-13.32;67.52
72762;SHT30;60886;55.034;73.150;2022-12-07T07:20:51;-13.35;66.98
72762;SHT30;60886;55.034;73.150;2022-12-07T07:23:27;-13.22;66.08
72762;SHT30;60886;55.034;73.150;2022-12-07T07:25:53;-13.06;65.69
72762;SHT30;60886;55.034;73.150;2022-12-07T07:28:19;-12.93;65.02
72762;SHT30;60886;55.034;73.150;2022-12-07T07:30:46;-12.97;63.64
72762;SHT30;60886;55.034;73.150;2022-12-07T07:33:12;-13.10;63.80
72762;SHT30;60886;55.034;73.150;2022-12-07T07:35:39;-13.07;64.08
72762;SHT30;60886;55.034;73.150;2022-12-07T07:38:06;-13.12;63.17
72762;SHT30;60886;55.034;73.150;2022-12-07T07:40:32;-13.22;63.10
72762;SHT30;60886;55.034;73.150;2022-12-07T07:43:00;-13.11;63.20
72762;SHT30;60886;55.034;73.150;2022-12-07T07:45:27;-13.04;63.44
72762;SHT30;60886;55.034;73.150;2022-12-07T07:47:53;-12.97;62.96
72762;SHT30;60886;55.034;73.150;2022-12-07T07:50:20;-12.86;62.38
72762;SHT30;60886;55.034;73.150;2022-12-07T07:52:52;-12.83;61.89
72762;SHT30;60886;55.034;73.150;2022-12-07T07:55:19;-12.75;62.27
72762;SHT30;60886;55.034;73.150;2022-12-07T07:57:45;-12.77;62.83
72762;SHT30;60886;55.034;73.150;2022-12-07T08:00:13;-12.76;63.22
72762;SHT30;60886;55.034;73.150;2022-12-07T08:02:41;-12.65;63.86
72762;SHT30;60886;55.034;73.150;2022-12-07T08:05:10;-12.66;62.67
72762;SHT30;60886;55.034;73.150;2022-12-07T08:07:36;-12.66;62.17
72762;SHT30;60886;55.034;73.150;2022-12-07T08:10:03;-12.62;62.02
72762;SHT30;60886;55.034;73.150;2022-12-07T08:12:30;-12.57;61.14
72762;SHT30;60886;55.034;73.150;2022-12-07T08:14:56;-12.55;60.77
72762;SHT30;60886;55.034;73.150;2022-12-07T08:17:23;-12.53;61.35
72762;SHT30;60886;55.034;73.150;2022-12-07T08:19:54;-12.76;61.01
72762;SHT30;60886;55.034;73.150;2022-12-07T08:22:20;-12.81;61.78
72762;SHT30;60886;55.034;73.150;2022-12-07T08:24:47;-12.72;61.36
72762;SHT30;60886;55.034;73.150;2022-12-07T08:27:13;-12.75;61.40
72762;SHT30;60886;55.034;73.150;2022-12-07T08:29:39;-12.86;61.42
72762;SHT30;60886;55.034;73.150;2022-12-07T08:32:05;-12.80;62.46
72762;SHT30;60886;55.034;73.150;2022-12-07T08:34:32;-12.80;62.11
72762;SHT30;60886;55.034;73.150;2022-12-07T08:36:58;-13.04;62.74
72762;SHT30;60886;55.034;73.150;2022-12-07T08:39:24;-13.22;63.59
72762;SHT30;60886;55.034;73.150;2022-12-07T08:41:51;-13.45;63.68
72762;SHT30;60886;55.034;73.150;2022-12-07T08:44:18;-13.41;64.58
72762;SHT30;60886;55.034;73.150;2022-12-07T08:46:59;-13.21;64.29
72762;SHT30;60886;55.034;73.150;2022-12-07T08:49:31;-13.10;64.07
72762;SHT30;60886;55.034;73.150;2022-12-07T08:51:59;-13.08;62.87
72762;SHT30;60886;55.034;73.150;2022-12-07T08:54:26;-13.27;62.79
72762;SHT30;60886;55.034;73.150;2022-12-07T08:56:55;-13.24;63.52
72762;SHT30;60886;55.034;73.150;2022-12-07T08:59:27;-13.12;64.27
72762;SHT30;60886;55.034;73.150;2022-12-07T09:01:54;-13.00;63.85
72762;SHT30;60886;55.034;73.150;2022-12-07T09:04:27;-12.94;63.55
72762;SHT30;60886;55.034;73.150;2022-12-07T09:06:55;-13.18;63.14
72762;SHT30;60886;55.034;73.150;2022-12-07T09:09:21;-13.24;64.22
72762;SHT30;60886;55.034;73.150;2022-12-07T09:11:48;-13.25;64.11
72762;SHT30;60886;55.034;73.150;2022-12-07T09:14:14;-13.27;65.09
72762;SHT30;60886;55.034;73.150;2022-12-07T09:16:41;-13.36;64.45
72762;SHT30;60886;55.034;73.150;2022-12-07T09:19:14;-13.38;65.08
72762;SHT30;60886;55.034;73.150;2022-12-07T09:21:42;-13.42;65.21
72762;SHT30;60886;55.034;73.150;2022-12-07T09:24:09;-13.41;65.60
72762;SHT30;60886;55.034;73.150;2022-12-07T09:26:35;-13.31;65.68
72762;SHT30;60886;55.034;73.150;2022-12-07T09:29:02;-13.39;65.40
72762;SHT30;60886;55.034;73.150;2022-12-07T09:31:29;-13.55;65.91
72762;SHT30;60886;55.034;73.150;2022-12-07T09:33:56;-13.58;66.72
72762;SHT30;60886;55.034;73.150;2022-12-07T09:36:24;-13.54;66.97
72762;SHT30;60886;55.034;73.150;2022-12-07T09:38:51;-13.48;67.06
72762;SHT30;60886;55.034;73.150;2022-12-07T09:41:18;-13.34;66.75
72762;SHT30;60886;55.034;73.150;2022-12-07T09:44:02;-13.32;65.94
72762;SHT30;60886;55.034;73.150;2022-12-07T09:46:30;-13.34;65.93
72762;SHT30;60886;55.034;73.150;2022-12-07T09:48:59;-13.25;66.00
72762;SHT30;60886;55.034;73.150;2022-12-07T09:51:25;-13.30;65.43
72762;SHT30;60886;55.034;73.150;2022-12-07T09:53:54;-13.42;65.86
72762;SHT30;60886;55.034;73.150;2022-12-07T09:56:25;-13.38;66.09
72762;SHT30;60886;55.034;73.150;2022-12-07T09:59:01;-13.35;66.77
72762;SHT30;60886;55.034;73.150;2022-12-07T10:01:30;-13.28;66.68
72762;SHT30;60886;55.034;73.150;2022-12-07T10:04:13;-13.22;66.23
72762;SHT30;60886;55.034;73.150;2022-12-07T10:06:42;-13.31;65.84
72762;SHT30;60886;55.034;73.150;2022-12-07T10:09:13;-13.46;66.37
72762;SHT30;60886;55.034;73.150;2022-12-07T10:14:31;-13.59;67.11
72762;SHT30;60886;55.034;73.150;2022-12-07T10:22:38;-13.75;68.08
72762;SHT30;60886;55.034;73.150;2022-12-07T10:25:18;-13.76;68.42
72762;SHT30;60886;55.034;73.150;2022-12-07T10:30:57;-13.70;68.53
72762;SHT30;60886;55.034;73.150;2022-12-07T10:33:48;-13.73;68.61
72762;SHT30;60886;55.034;73.150;2022-12-07T10:36:29;-13.69;68.82
72762;SHT30;60886;55.034;73.150;2022-12-07T10:39:15;-13.69;68.66
72762;SHT30;60886;55.034;73.150;2022-12-07T10:41:54;-13.69;68.38
72762;SHT30;60886;55.034;73.150;2022-12-07T10:44:29;-13.69;68.67
72762;SHT30;60886;55.034;73.150;2022-12-07T10:50:08;-13.67;68.12
72762;SHT30;60886;55.034;73.150;2022-12-07T11:04:02;-13.69;68.89
72762;SHT30;60886;55.034;73.150;2022-12-07T11:07:06;-13.70;68.79
72762;SHT30;60886;55.034;73.150;2022-12-07T11:09:44;-13.94;68.83
72762;SHT30;60886;55.034;73.150;2022-12-07T11:18:13;-14.09;69.82
72762;SHT30;60886;55.034;73.150;2022-12-07T11:21:06;-14.19;70.14
72762;SHT30;60886;55.034;73.150;2022-12-07T11:26:58;-14.30;70.31
72762;SHT30;60886;55.034;73.150;2022-12-07T11:35:08;-14.47;71.75
72762;SHT30;60886;55.034;73.150;2022-12-07T11:37:37;-14.28;71.64
72762;SHT30;60886;55.034;73.150;2022-12-07T11:40:22;-14.26;71.15
72762;SHT30;60886;55.034;73.150;2022-12-07T11:43:01;-14.17;70.87
72762;SHT30;60886;55.034;73.150;2022-12-07T11:45:31;-14.20;70.54
72762;SHT30;60886;55.034;73.150;2022-12-07T11:48:20;-14.33;70.67
72762;SHT30;60886;55.034;73.150;2022-12-07T11:50:54;-14.33;71.14
72762;SHT30;60886;55.034;73.150;2022-12-07T11:53:28;-14.41;70.74
72762;SHT30;60886;55.034;73.150;2022-12-07T12:06:48;-14.68;71.08
72762;SHT30;60886;55.034;73.150;2022-12-07T12:09:31;-14.62;71.48
72762;SHT30;60886;55.034;73.150;2022-12-07T12:12:34;-14.67;70.91
72762;SHT30;60886;55.034;73.150;2022-12-07T12:20:29;-14.76;70.80
72762;SHT30;60886;55.034;73.150;2022-12-07T12:23:07;-14.76;70.67
72762;SHT30;60886;55.034;73.150;2022-12-07T12:25:59;-14.89;70.68
72762;SHT30;60886;55.034;73.150;2022-12-07T12:28:32;-14.96;70.77
72762;SHT30;60886;55.034;73.150;2022-12-07T12:37:51;-15.33;71.44
72762;SHT30;60886;55.034;73.150;2022-12-07T12:42:57;-15.40;71.78
72762;SHT30;60886;55.034;73.150;2022-12-07T12:45:29;-15.41;72.15
72762;SHT30;60886;55.034;73.150;2022-12-07T12:48:01;-15.38;71.96
72762;SHT30;60886;55.034;73.150;2022-12-07T12:50:39;-15.41;71.64
72762;SHT30;60886;55.034;73.150;2022-12-07T12:53:22;-15.51;72.11
72762;SHT30;60886;55.034;73.150;2022-12-07T12:59:33;-15.57;72.17
72762;SHT30;60886;55.034;73.150;2022-12-07T13:15:54;-16.08;71.96
72762;SHT30;60886;55.034;73.150;2022-12-07T13:26:42;-16.53;72.90
72762;SHT30;60886;55.034;73.150;2022-12-07T13:29:24;-16.53;73.20
72762;SHT30;60886;55.034;73.150;2022-12-07T13:31:56;-16.56;73.13
72762;SHT30;60886;55.034;73.150;2022-12-07T13:34:40;-16.54;73.17
72762;SHT30;60886;55.034;73.150;2022-12-07T13:37:15;-16.54;73.10
72762;SHT30;60886;55.034;73.150;2022-12-07T13:39:50;-16.51;73.44
72762;SHT30;60886;55.034;73.150;2022-12-07T13:45:00;-16.48;73.38
72762;SHT30;60886;55.034;73.150;2022-12-07T13:50:30;-16.30;73.12
72762;SHT30;60886;55.034;73.150;2022-12-07T13:53:19;-16.29;72.36
72762;SHT30;60886;55.034;73.150;2022-12-07T13:55:46;-16.29;72.21
72762;SHT30;60886;55.034;73.150;2022-12-07T13:58:22;-16.26;72.22
72762;SHT30;60886;55.034;73.150;2022-12-07T14:00:50;-16.23;71.88
72762;SHT30;60886;55.034;73.150;2022-12-07T14:05:47;-16.33;71.90
72762;SHT30;60886;55.034;73.150;2022-12-07T14:08:30;-16.29;71.91
72762;SHT30;60886;55.034;73.150;2022-12-07T14:10:58;-16.29;72.10
72762;SHT30;60886;55.034;73.150;2022-12-07T14:13:39;-16.29;71.93
72762;SHT30;60886;55.034;73.150;2022-12-07T14:16:30;-16.33;71.68
72762;SHT30;60886;55.034;73.150;2022-12-07T14:22:25;-16.39;71.73
72762;SHT30;60886;55.034;73.150;2022-12-07T14:25:17;-16.36;71.86
72762;SHT30;60886;55.034;73.150;2022-12-07T14:30:28;-16.53;71.78
72762;SHT30;60886;55.034;73.150;2022-12-07T14:33:00;-16.47;72.30
72762;SHT30;60886;55.034;73.150;2022-12-07T14:35:29;-16.40;72.25
72762;SHT30;60886;55.034;73.150;2022-12-07T14:37:56;-16.39;71.85
72762;SHT30;60886;55.034;73.150;2022-12-07T14:40:27;-16.33;71.63
72762;SHT30;60886;55.034;73.150;2022-12-07T14:43:15;-16.29;71.43
72762;SHT30;60886;55.034;73.150;2022-12-07T14:45:47;-16.36;70.98
72762;SHT30;60886;55.034;73.150;2022-12-07T14:48:15;-16.46;71.14
72762;SHT30;60886;55.034;73.150;2022-12-07T14:50:51;-16.47;71.28
72762;SHT30;60886;55.034;73.150;2022-12-07T14:53:21;-16.65;71.37
72762;SHT30;60886;55.034;73.150;2022-12-07T14:55:57;-16.67;72.09
72762;SHT30;60886;55.034;73.150;2022-12-07T14:58:30;-16.65;72.07
72762;SHT30;60886;55.034;73.150;2022-12-07T15:01:03;-16.73;71.93
72762;SHT30;60886;55.034;73.150;2022-12-07T15:03:30;-16.83;72.24
72762;SHT30;60886;55.034;73.150;2022-12-07T15:05:56;-16.78;72.16
72762;SHT30;60886;55.034;73.150;2022-12-07T15:08:24;-16.83;72.05
72762;SHT30;60886;55.034;73.150;2022-12-07T15:10:52;-16.84;72.13
72762;SHT30;60886;55.034;73.150;2022-12-07T15:13:28;-16.90;72.15
72762;SHT30;60886;55.034;73.150;2022-12-07T15:16:25;-16.97;71.99
72762;SHT30;60886;55.034;73.150;2022-12-07T15:18:52;-17.05;72.00
72762;SHT30;60886;55.034;73.150;2022-12-07T15:21:23;-17.10;72.32
72762;SHT30;60886;55.034;73.150;2022-12-07T15:23:49;-17.14;72.41
72762;SHT30;60886;55.034;73.150;2022-12-07T15:26:17;-17.19;72.09
72762;SHT30;60886;55.034;73.150;2022-12-07T15:28:44;-17.22;72.39
72762;SHT30;60886;55.034;73.150;2022-12-07T15:31:18;-17.26;71.96
72762;SHT30;60886;55.034;73.150;2022-12-07T15:33:44;-17.26;72.02
72762;SHT30;60886;55.034;73.150;2022-12-07T15:36:20;-17.25;71.92
72762;SHT30;60886;55.034;73.150;2022-12-07T15:38:57;-17.28;71.65
72762;SHT30;60886;55.034;73.150;2022-12-07T15:41:35;-17.40;71.38
72762;SHT30;60886;55.034;73.150;2022-12-07T15:44:01;-17.47;71.46
72762;SHT30;60886;55.034;73.150;2022-12-07T15:46:56;-17.53;71.70
72762;SHT30;60886;55.034;73.150;2022-12-07T15:49:23;-17.49;71.87
72762;SHT30;60886;55.034;73.150;2022-12-07T15:51:51;-17.56;71.40
72762;SHT30;60886;55.034;73.150;2022-12-07T15:54:23;-17.56;71.70
72762;SHT30;60886;55.034;73.150;2022-12-07T15:56:55;-17.60;71.51
72762;SHT30;60886;55.034;73.150;2022-12-07T15:59:22;-17.56;71.66
72762;SHT30;60886;55.034;73.150;2022-12-07T16:01:54;-17.50;71.56
72762;SHT30;60886;55.034;73.150;2022-12-07T16:04:21;-17.60;71.22
72762;SHT30;60886;55.034;73.150;2022-12-07T16:06:47;-17.62;71.16
72762;SHT30;60886;55.034;73.150;2022-12-07T16:09:13;-17.65;71.48
72762;SHT30;60886;55.034;73.150;2022-12-07T16:11:45;-17.60;71.85
72762;SHT30;60886;55.034;73.150;2022-12-07T16:14:12;-17.55;71.64
72762;SHT30;60886;55.034;73.150;2022-12-07T16:16:38;-17.60;71.07
72762;SHT30;60886;55.034;73.150;2022-12-07T16:19:11;-17.69;70.88
72762;SHT30;60886;55.034;73.150;2022-12-07T16:21:38;-17.76;71.08
72762;SHT30;60886;55.034;73.150;2022-12-07T16:24:05;-17.76;71.49
72762;SHT30;60886;55.034;73.150;2022-12-07T16:26:33;-17.74;71.09
72762;SHT30;60886;55.034;73.150;2022-12-07T16:29:05;-17.80;70.99
72762;SHT30;60886;55.034;73.150;2022-12-07T16:31:42;-17.91;71.27
72762;SHT30;60886;55.034;73.150;2022-12-07T16:34:10;-17.98;71.27
72762;SHT30;60886;55.034;73.150;2022-12-07T16:36:46;-18.00;71.38
72762;SHT30;60886;55.034;73.150;2022-12-07T16:39:14;-18.02;71.06
72762;SHT30;60886;55.034;73.150;2022-12-07T16:41:40;-18.04;71.05
72762;SHT30;60886;55.034;73.150;2022-12-07T16:44:10;-18.04;70.94
72762;SHT30;60886;55.034;73.150;2022-12-07T16:46:40;-18.15;71.11
72762;SHT30;60886;55.034;73.150;2022-12-07T16:49:15;-18.18;71.29
72762;SHT30;60886;55.034;73.150;2022-12-07T16:51:51;-18.24;71.06
72762;SHT30;60886;55.034;73.150;2022-12-07T16:54:18;-18.28;70.95
72762;SHT30;60886;55.034;73.150;2022-12-07T16:56:44;-18.32;71.32
72762;SHT30;60886;55.034;73.150;2022-12-07T16:59:20;-18.31;71.21
72762;SHT30;60886;55.034;73.150;2022-12-07T17:01:47;-18.35;70.77
72762;SHT30;60886;55.034;73.150;2022-12-07T17:04:14;-18.45;71.24
72762;SHT30;60886;55.034;73.150;2022-12-07T17:06:41;-18.41;71.16
72762;SHT30;60886;55.034;73.150;2022-12-07T17:09:17;-18.32;71.15
72762;SHT30;60886;55.034;73.150;2022-12-07T17:11:44;-18.25;70.62
72762;SHT30;60886;55.034;73.150;2022-12-07T17:14:12;-18.35;70.12
72762;SHT30;60886;55.034;73.150;2022-12-07T17:16:57;-18.36;70.92
72762;SHT30;60886;55.034;73.150;2022-12-07T17:19:28;-18.41;70.58
72762;SHT30;60886;55.034;73.150;2022-12-07T17:21:55;-18.59;70.71
72762;SHT30;60886;55.034;73.150;2022-12-07T17:24:21;-18.62;71.19
72762;SHT30;60886;55.034;73.150;2022-12-07T17:26:47;-18.59;71.49
72762;SHT30;60886;55.034;73.150;2022-12-07T17:29:16;-18.51;71.38
72762;SHT30;60886;55.034;73.150;2022-12-07T17:31:43;-18.59;70.58
72762;SHT30;60886;55.034;73.150;2022-12-07T17:34:14;-18.57;71.09
72762;SHT30;60886;55.034;73.150;2022-12-07T17:36:42;-18.55;71.45
72762;SHT30;60886;55.034;73.150;2022-12-07T17:39:09;-18.57;71.27
72762;SHT30;60886;55.034;73.150;2022-12-07T17:41:36;-18.45;71.34
72762;SHT30;60886;55.034;73.150;2022-12-07T17:44:22;-18.59;70.61
72762;SHT30;60886;55.034;73.150;2022-12-07T17:46:51;-18.62;70.61
72762;SHT30;60886;55.034;73.150;2022-12-07T17:49:25;-18.79;70.79
72762;SHT30;60886;55.034;73.150;2022-12-07T17:51:51;-18.80;71.08